sensor_id;sensor_type;location;lat;lon;timestamp;pressure;altitude;pressure_sealevel;temperature;humidity
53546;BME280;39432;51.902;10.844;2022-12-31T00:01:34;98558.09;;;12.16;100.00
53546;BME280;39432;51.902;10.844;2022-12-31T00:04:04;98549.00;;;11.97;100.00
53546;BME280;39432;51.902;10.844;2022-12-31T00:06:36;98556.97;;;12.17;100.00
53546;BME280;39432;51.902;10.844;2022-12-31T00:09:06;98554.66;;;12.24;100.00
53546;BME280;39432;51.902;10.844;2022-12-31T00:11:37;98555.84;;;12.18;100.00
53546;BME280;39432;51.902;10.844;2022-12-31T00:14:07;98560.56;;;12.36;100.00
53546;BME280;39432;51.902;10.844;2022-12-31T00:16:39;98558.38;;;11.91;100.00
53546;BME280;39432;51.902;10.844;2022-12-31T00:19:10;98563.94;;;12.28;100.00
53546;BME280;39432;51.902;10.844;2022-12-31T00:21:43;98560.06;;;12.10;100.00
53546;BME280;39432;51.902;10.844;2022-12-31T00:24:13;98574.66;;;12.06;100.00
53546;BME280;39432;51.902;10.844;2022-12-31T00:26:42;98571.41;;;12.04;100.00
53546;BME280;39432;51.902;10.844;2022-12-31T00:29:12;98580.91;;;12.30;100.00
53546;BME280;39432;51.902;10.844;2022-12-31T00:31:42;98583.94;;;12.72;100.00
53546;BME280;39432;51.902;10.844;2022-12-31T00:34:11;98578.41;;;12.34;100.00
53546;BME280;39432;51.902;10.844;2022-12-31T00:36:43;98573.41;;;12.60;100.00
53546;BME280;39432;51.902;10.844;2022-12-31T00:39:13;98586.16;;;12.70;100.00
53546;BME280;39432;51.902;10.844;2022-12-31T00:41:42;98577.56;;;12.76;100.00
53546;BME280;39432;51.902;10.844;2022-12-31T00:44:12;98580.28;;;12.95;100.00
53546;BME280;39432;51.902;10.844;2022-12-31T00:46:42;98566.84;;;12.93;100.00
53546;BME280;39432;51.902;10.844;2022-12-31T00:49:11;98578.50;;;12.66;100.00
53546;BME280;39432;51.902;10.844;2022-12-31T00:51:43;98592.44;;;12.89;100.00
53546;BME280;39432;51.902;10.844;2022-12-31T00:54:13;98595.25;;;13.22;100.00
53546;BME280;39432;51.902;10.844;2022-12-31T00:56:43;98569.28;;;13.14;100.00
53546;BME280;39432;51.902;10.844;2022-12-31T00:59:13;98575.72;;;13.23;100.00
53546;BME280;39432;51.902;10.844;2022-12-31T01:01:42;98578.13;;;12.73;100.00
53546;BME280;39432;51.902;10.844;2022-12-31T01:04:15;98582.59;;;12.69;100.00
53546;BME280;39432;51.902;10.844;2022-12-31T01:06:47;98580.34;;;13.09;100.00
53546;BME280;39432;51.902;10.844;2022-12-31T01:09:17;98578.09;;;13.11;100.00
53546;BME280;39432;51.902;10.844;2022-12-31T01:11:49;98575.75;;;12.85;100.00
53546;BME280;39432;51.902;10.844;2022-12-31T01:14:19;98578.22;;;12.87;100.00
53546;BME280;39432;51.902;10.844;2022-12-31T01:16:50;98574.84;;;12.90;100.00
53546;BME280;39432;51.902;10.844;2022-12-31T01:19:22;98581.72;;;13.06;100.00
53546;BME280;39432;51.902;10.844;2022-12-31T01:21:55;98595.06;;;12.80;100.00
53546;BME280;39432;51.902;10.844;2022-12-31T01:24:25;98592.97;;;12.72;100.00
53546;BME280;39432;51.902;10.844;2022-12-31T01:26:55;98602.44;;;12.80;100.00
53546;BME280;39432;51.902;10.844;2022-12-31T01:29:25;98624.44;;;12.99;100.00
53546;BME280;39432;51.902;10.844;2022-12-31T01:31:55;98620.41;;;13.10;100.00
53546;BME280;39432;51.902;10.844;2022-12-31T01:34:26;98607.19;;;13.12;100.00
53546;BME280;39432;51.902;10.844;2022-12-31T01:36:58;98610.09;;;12.83;100.00
53546;BME280;39432;51.902;10.844;2022-12-31T01:39:28;98614.78;;;12.82;100.00
53546;BME280;39432;51.902;10.844;2022-12-31T01:41:58;98624.19;;;12.95;100.00
53546;BME280;39432;51.902;10.844;2022-12-31T01:44:55;98633.16;;;12.63;100.00
53546;BME280;39432;51.902;10.844;2022-12-31T01:47:33;98641.94;;;13.03;100.00
53546;BME280;39432;51.902;10.844;2022-12-31T01:50:08;98638.59;;;12.87;100.00
53546;BME280;39432;51.902;10.844;2022-12-31T01:52:44;98641.47;;;12.96;100.00
53546;BME280;39432;51.902;10.844;2022-12-31T01:55:17;98637.63;;;13.15;100.00
53546;BME280;39432;51.902;10.844;2022-12-31T01:57:51;98633.69;;;12.84;100.00
53546;BME280;39432;51.902;10.844;2022-12-31T02:00:22;98622.53;;;13.13;100.00
53546;BME280;39432;51.902;10.844;2022-12-31T02:02:52;98616.13;;;13.04;100.00
53546;BME280;39432;51.902;10.844;2022-12-31T02:05:26;98621.69;;;12.99;100.00
53546;BME280;39432;51.902;10.844;2022-12-31T02:08:01;98617.91;;;12.95;100.00
53546;BME280;39432;51.902;10.844;2022-12-31T02:10:31;98619.91;;;13.27;100.00
53546;BME280;39432;51.902;10.844;2022-12-31T02:13:01;98605.44;;;13.21;100.00
53546;BME280;39432;51.902;10.844;2022-12-31T02:15:38;98610.84;;;13.26;100.00
53546;BME280;39432;51.902;10.844;2022-12-31T02:18:15;98620.63;;;13.32;100.00
53546;BME280;39432;51.902;10.844;2022-12-31T02:21:27;98623.38;;;13.32;100.00
53546;BME280;39432;51.902;10.844;2022-12-31T02:24:20;98609.38;;;13.48;100.00
53546;BME280;39432;51.902;10.844;2022-12-31T02:26:57;98606.69;;;13.75;100.00
53546;BME280;39432;51.902;10.844;2022-12-31T02:32:37;98594.56;;;13.76;100.00
53546;BME280;39432;51.902;10.844;2022-12-31T02:35:14;98582.81;;;13.43;100.00
53546;BME280;39432;51.902;10.844;2022-12-31T02:37:51;98581.94;;;13.29;100.00
53546;BME280;39432;51.902;10.844;2022-12-31T02:40:22;98583.31;;;13.45;100.00
53546;BME280;39432;51.902;10.844;2022-12-31T02:42:52;98575.63;;;13.88;100.00
53546;BME280;39432;51.902;10.844;2022-12-31T02:45:26;98581.81;;;13.53;100.00
53546;BME280;39432;51.902;10.844;2022-12-31T02:48:04;98583.25;;;13.64;100.00
53546;BME280;39432;51.902;10.844;2022-12-31T02:50:43;98572.59;;;14.04;100.00
53546;BME280;39432;51.902;10.844;2022-12-31T02:53:40;98571.56;;;13.72;100.00
53546;BME280;39432;51.902;10.844;2022-12-31T02:56:17;98567.66;;;14.28;100.00
53546;BME280;39432;51.902;10.844;2022-12-31T02:58:59;98581.34;;;14.06;100.00
53546;BME280;39432;51.902;10.844;2022-12-31T03:01:47;98577.22;;;13.62;100.00
53546;BME280;39432;51.902;10.844;2022-12-31T03:04:34;98573.91;;;13.65;100.00
53546;BME280;39432;51.902;10.844;2022-12-31T03:07:06;98575.44;;;13.98;100.00
53546;BME280;39432;51.902;10.844;2022-12-31T03:09:37;98575.84;;;14.06;100.00
53546;BME280;39432;51.902;10.844;2022-12-31T03:12:09;98573.34;;;13.35;100.00
53546;BME280;39432;51.902;10.844;2022-12-31T03:14:52;98583.38;;;13.26;100.00
53546;BME280;39432;51.902;10.844;2022-12-31T03:17:22;98585.00;;;13.27;100.00
53546;BME280;39432;51.902;10.844;2022-12-31T03:19:54;98582.28;;;12.89;100.00
53546;BME280;39432;51.902;10.844;2022-12-31T03:22:40;98594.72;;;13.01;100.00
53546;BME280;39432;51.902;10.844;2022-12-31T03:25:12;98592.34;;;13.13;100.00
53546;BME280;39432;51.902;10.844;2022-12-31T03:27:55;98584.84;;;13.18;100.00
53546;BME280;39432;51.902;10.844;2022-12-31T03:30:25;98600.84;;;13.49;100.00
53546;BME280;39432;51.902;10.844;2022-12-31T03:32:55;98577.44;;;13.19;100.00
53546;BME280;39432;51.902;10.844;2022-12-31T03:35:28;98578.81;;;13.16;100.00
53546;BME280;39432;51.902;10.844;2022-12-31T03:38:00;98583.72;;;13.38;100.00
53546;BME280;39432;51.902;10.844;2022-12-31T03:40:31;98569.63;;;13.26;100.00
53546;BME280;39432;51.902;10.844;2022-12-31T03:43:01;98557.09;;;13.53;100.00
53546;BME280;39432;51.902;10.844;2022-12-31T03:45:31;98548.44;;;13.59;100.00
53546;BME280;39432;51.902;10.844;2022-12-31T03:48:02;98553.97;;;13.27;100.00
53546;BME280;39432;51.902;10.844;2022-12-31T03:50:35;98552.81;;;13.60;100.00
53546;BME280;39432;51.902;10.844;2022-12-31T03:53:05;98537.72;;;13.44;100.00
53546;BME280;39432;51.902;10.844;2022-12-31T03:55:35;98534.88;;;13.35;100.00
53546;BME280;39432;51.902;10.844;2022-12-31T03:58:05;98535.56;;;13.27;100.00
53546;BME280;39432;51.902;10.844;2022-12-31T04:00:35;98526.50;;;13.27;100.00
53546;BME280;39432;51.902;10.844;2022-12-31T04:03:05;98529.63;;;13.20;100.00
53546;BME280;39432;51.902;10.844;2022-12-31T04:05:37;98537.31;;;12.85;100.00
53546;BME280;39432;51.902;10.844;2022-12-31T04:08:07;98543.13;;;13.16;100.00
53546;BME280;39432;51.902;10.844;2022-12-31T04:10:36;98561.63;;;13.11;100.00
53546;BME280;39432;51.902;10.844;2022-12-31T04:13:06;98565.84;;;13.22;100.00
53546;BME280;39432;51.902;10.844;2022-12-31T04:15:35;98553.53;;;13.19;100.00
53546;BME280;39432;51.902;10.844;2022-12-31T04:18:05;98576.50;;;13.42;100.00
53546;BME280;39432;51.902;10.844;2022-12-31T04:20:37;98565.91;;;13.50;100.00
53546;BME280;39432;51.902;10.844;2022-12-31T04:23:07;98554.06;;;13.68;100.00
53546;BME280;39432;51.902;10.844;2022-12-31T04:25:36;98540.41;;;13.63;100.00
53546;BME280;39432;51.902;10.844;2022-12-31T04:28:06;98527.75;;;13.62;100.00
53546;BME280;39432;51.902;10.844;2022-12-31T04:30:36;98541.22;;;13.77;100.00
53546;BME280;39432;51.902;10.844;2022-12-31T04:33:05;98537.88;;;13.80;100.00
53546;BME280;39432;51.902;10.844;2022-12-31T04:35:37;98523.69;;;14.01;100.00
53546;BME280;39432;51.902;10.844;2022-12-31T04:38:07;98527.34;;;14.10;100.00
53546;BME280;39432;51.902;10.844;2022-12-31T04:40:36;98510.84;;;14.10;100.00
53546;BME280;39432;51.902;10.844;2022-12-31T04:43:26;98516.13;;;14.20;100.00
53546;BME280;39432;51.902;10.844;2022-12-31T04:45:56;98501.25;;;14.21;100.00
53546;BME280;39432;51.902;10.844;2022-12-31T04:48:26;98501.78;;;14.23;100.00
53546;BME280;39432;51.902;10.844;2022-12-31T04:50:58;98504.16;;;14.38;100.00
53546;BME280;39432;51.902;10.844;2022-12-31T04:53:28;98491.34;;;14.70;100.00
53546;BME280;39432;51.902;10.844;2022-12-31T04:55:57;98485.78;;;14.84;100.00
53546;BME280;39432;51.902;10.844;2022-12-31T04:58:27;98476.44;;;14.71;100.00
53546;BME280;39432;51.902;10.844;2022-12-31T05:00:57;98466.66;;;14.79;100.00
53546;BME280;39432;51.902;10.844;2022-12-31T05:03:27;98477.31;;;15.02;100.00
53546;BME280;39432;51.902;10.844;2022-12-31T05:06:03;98465.56;;;14.88;100.00
53546;BME280;39432;51.902;10.844;2022-12-31T05:08:33;98459.75;;;14.90;100.00
53546;BME280;39432;51.902;10.844;2022-12-31T05:11:02;98472.97;;;14.79;100.00
53546;BME280;39432;51.902;10.844;2022-12-31T05:13:32;98458.44;;;14.87;100.00
53546;BME280;39432;51.902;10.844;2022-12-31T05:16:03;98475.16;;;14.91;100.00
53546;BME280;39432;51.902;10.844;2022-12-31T05:18:33;98459.22;;;14.88;100.00
53546;BME280;39432;51.902;10.844;2022-12-31T05:21:06;98453.56;;;14.84;100.00
53546;BME280;39432;51.902;10.844;2022-12-31T05:23:36;98453.69;;;14.79;100.00
53546;BME280;39432;51.902;10.844;2022-12-31T05:26:06;98432.84;;;14.64;100.00
53546;BME280;39432;51.902;10.844;2022-12-31T05:28:35;98427.44;;;14.82;100.00
53546;BME280;39432;51.902;10.844;2022-12-31T05:31:05;98431.16;;;14.77;100.00
53546;BME280;39432;51.902;10.844;2022-12-31T05:33:34;98414.59;;;14.99;100.00
53546;BME280;39432;51.902;10.844;2022-12-31T05:36:07;98425.47;;;15.05;100.00
53546;BME280;39432;51.902;10.844;2022-12-31T05:38:36;98427.47;;;15.13;100.00
53546;BME280;39432;51.902;10.844;2022-12-31T05:41:07;98432.72;;;15.32;100.00
53546;BME280;39432;51.902;10.844;2022-12-31T05:43:37;98437.28;;;15.36;100.00
53546;BME280;39432;51.902;10.844;2022-12-31T05:46:07;98446.63;;;15.18;100.00
53546;BME280;39432;51.902;10.844;2022-12-31T05:48:37;98439.19;;;15.27;100.00
53546;BME280;39432;51.902;10.844;2022-12-31T05:51:12;98459.66;;;15.35;100.00
53546;BME280;39432;51.902;10.844;2022-12-31T05:53:41;98456.44;;;15.41;100.00
53546;BME280;39432;51.902;10.844;2022-12-31T05:56:11;98451.88;;;15.37;100.00
53546;BME280;39432;51.902;10.844;2022-12-31T05:58:40;98453.97;;;15.31;100.00
53546;BME280;39432;51.902;10.844;2022-12-31T06:01:10;98465.84;;;15.40;100.00
53546;BME280;39432;51.902;10.844;2022-12-31T06:03:40;98466.91;;;15.62;100.00
53546;BME280;39432;51.902;10.844;2022-12-31T06:06:12;98440.78;;;15.59;100.00
53546;BME280;39432;51.902;10.844;2022-12-31T06:08:41;98439.34;;;15.62;100.00
53546;BME280;39432;51.902;10.844;2022-12-31T06:11:11;98454.81;;;15.40;100.00
53546;BME280;39432;51.902;10.844;2022-12-31T06:13:41;98442.06;;;15.53;100.00
53546;BME280;39432;51.902;10.844;2022-12-31T06:16:11;98436.22;;;15.54;100.00
53546;BME280;39432;51.902;10.844;2022-12-31T06:18:41;98459.13;;;15.55;100.00
53546;BME280;39432;51.902;10.844;2022-12-31T06:21:18;98445.75;;;15.48;100.00
53546;BME280;39432;51.902;10.844;2022-12-31T06:23:48;98452.13;;;15.18;100.00
53546;BME280;39432;51.902;10.844;2022-12-31T06:26:17;98449.19;;;15.14;100.00
53546;BME280;39432;51.902;10.844;2022-12-31T06:28:47;98448.50;;;15.09;100.00
53546;BME280;39432;51.902;10.844;2022-12-31T06:31:17;98457.00;;;15.21;100.00
53546;BME280;39432;51.902;10.844;2022-12-31T06:33:46;98460.22;;;15.14;100.00
53546;BME280;39432;51.902;10.844;2022-12-31T06:36:19;98454.00;;;15.40;100.00
53546;BME280;39432;51.902;10.844;2022-12-31T06:38:48;98454.63;;;15.37;100.00
53546;BME280;39432;51.902;10.844;2022-12-31T06:41:18;98441.81;;;15.63;100.00
53546;BME280;39432;51.902;10.844;2022-12-31T06:43:48;98452.84;;;15.63;100.00
53546;BME280;39432;51.902;10.844;2022-12-31T06:46:17;98462.44;;;15.43;100.00
53546;BME280;39432;51.902;10.844;2022-12-31T06:48:47;98467.13;;;15.34;100.00
53546;BME280;39432;51.902;10.844;2022-12-31T06:51:20;98488.16;;;15.30;100.00
53546;BME280;39432;51.902;10.844;2022-12-31T06:53:50;98487.56;;;15.33;100.00
53546;BME280;39432;51.902;10.844;2022-12-31T06:56:22;98476.09;;;15.48;100.00
53546;BME280;39432;51.902;10.844;2022-12-31T06:59:01;98459.59;;;15.57;100.00
53546;BME280;39432;51.902;10.844;2022-12-31T07:01:44;98483.75;;;15.51;100.00
53546;BME280;39432;51.902;10.844;2022-12-31T07:07:40;98472.44;;;15.62;100.00
53546;BME280;39432;51.902;10.844;2022-12-31T07:10:18;98483.84;;;15.69;100.00
53546;BME280;39432;51.902;10.844;2022-12-31T07:13:06;98472.06;;;15.54;100.00
53546;BME280;39432;51.902;10.844;2022-12-31T07:15:54;98476.88;;;15.71;100.00
53546;BME280;39432;51.902;10.844;2022-12-31T07:18:32;98490.50;;;15.76;100.00
53546;BME280;39432;51.902;10.844;2022-12-31T07:21:09;98490.00;;;15.66;100.00
53546;BME280;39432;51.902;10.844;2022-12-31T07:23:43;98506.28;;;15.53;100.00
53546;BME280;39432;51.902;10.844;2022-12-31T07:26:18;98508.16;;;15.67;100.00
53546;BME280;39432;51.902;10.844;2022-12-31T07:28:59;98490.69;;;15.49;100.00
53546;BME280;39432;51.902;10.844;2022-12-31T07:31:46;98493.50;;;15.58;100.00
53546;BME280;39432;51.902;10.844;2022-12-31T07:34:21;98499.38;;;15.65;100.00
53546;BME280;39432;51.902;10.844;2022-12-31T07:37:00;98486.34;;;15.57;100.00
53546;BME280;39432;51.902;10.844;2022-12-31T07:39:39;98492.31;;;15.81;100.00
53546;BME280;39432;51.902;10.844;2022-12-31T07:42:15;98517.97;;;15.90;100.00
53546;BME280;39432;51.902;10.844;2022-12-31T07:45:00;98499.63;;;15.86;100.00
53546;BME280;39432;51.902;10.844;2022-12-31T07:47:32;98516.34;;;15.89;100.00
53546;BME280;39432;51.902;10.844;2022-12-31T07:50:03;98524.78;;;15.84;100.00
53546;BME280;39432;51.902;10.844;2022-12-31T07:52:33;98528.81;;;15.87;100.00
53546;BME280;39432;51.902;10.844;2022-12-31T07:55:06;98525.13;;;15.91;100.00
53546;BME280;39432;51.902;10.844;2022-12-31T07:57:42;98534.25;;;16.09;100.00
53546;BME280;39432;51.902;10.844;2022-12-31T08:00:15;98509.94;;;16.11;100.00
53546;BME280;39432;51.902;10.844;2022-12-31T08:03:09;98531.81;;;15.99;100.00
53546;BME280;39432;51.902;10.844;2022-12-31T08:05:48;98526.34;;;16.16;100.00
53546;BME280;39432;51.902;10.844;2022-12-31T08:08:30;98527.72;;;15.96;100.00
53546;BME280;39432;51.902;10.844;2022-12-31T08:11:12;98531.16;;;15.93;100.00
53546;BME280;39432;51.902;10.844;2022-12-31T08:13:46;98531.16;;;15.93;100.00
53546;BME280;39432;51.902;10.844;2022-12-31T08:16:16;98534.88;;;15.97;100.00
53546;BME280;39432;51.902;10.844;2022-12-31T08:18:48;98550.94;;;16.04;100.00
53546;BME280;39432;51.902;10.844;2022-12-31T08:21:30;98552.38;;;15.84;100.00
53546;BME280;39432;51.902;10.844;2022-12-31T08:24:14;98558.22;;;15.91;100.00
53546;BME280;39432;51.902;10.844;2022-12-31T08:26:56;98572.34;;;15.90;100.00
53546;BME280;39432;51.902;10.844;2022-12-31T08:29:34;98579.13;;;15.84;100.00
53546;BME280;39432;51.902;10.844;2022-12-31T08:32:08;98584.00;;;15.87;100.00
53546;BME280;39432;51.902;10.844;2022-12-31T08:34:48;98585.19;;;15.94;100.00
53546;BME280;39432;51.902;10.844;2022-12-31T08:37:25;98597.13;;;15.81;100.00
53546;BME280;39432;51.902;10.844;2022-12-31T08:40:01;98588.69;;;15.77;100.00
53546;BME280;39432;51.902;10.844;2022-12-31T08:42:45;98586.09;;;15.81;100.00
53546;BME280;39432;51.902;10.844;2022-12-31T08:45:22;98596.50;;;15.84;100.00
53546;BME280;39432;51.902;10.844;2022-12-31T08:47:57;98595.97;;;15.82;100.00
53546;BME280;39432;51.902;10.844;2022-12-31T08:50:29;98581.75;;;15.89;100.00
53546;BME280;39432;51.902;10.844;2022-12-31T08:53:00;98574.22;;;16.12;100.00
53546;BME280;39432;51.902;10.844;2022-12-31T08:55:30;98581.34;;;16.13;100.00
53546;BME280;39432;51.902;10.844;2022-12-31T08:58:10;98593.38;;;16.17;100.00
53546;BME280;39432;51.902;10.844;2022-12-31T09:00:49;98600.19;;;16.11;100.00
53546;BME280;39432;51.902;10.844;2022-12-31T09:03:29;98570.94;;;16.10;100.00
53546;BME280;39432;51.902;10.844;2022-12-31T09:06:09;98582.69;;;16.24;100.00
53546;BME280;39432;51.902;10.844;2022-12-31T09:08:47;98598.16;;;16.33;100.00
53546;BME280;39432;51.902;10.844;2022-12-31T09:11:22;98580.91;;;16.28;100.00
53546;BME280;39432;51.902;10.844;2022-12-31T09:14:08;98590.19;;;16.32;100.00
53546;BME280;39432;51.902;10.844;2022-12-31T09:16:49;98591.00;;;16.32;100.00
53546;BME280;39432;51.902;10.844;2022-12-31T09:19:21;98608.38;;;16.33;100.00
53546;BME280;39432;51.902;10.844;2022-12-31T09:21:51;98610.00;;;16.34;100.00
53546;BME280;39432;51.902;10.844;2022-12-31T09:24:21;98618.13;;;16.39;100.00
53546;BME280;39432;51.902;10.844;2022-12-31T09:26:58;98623.81;;;16.34;100.00
53546;BME280;39432;51.902;10.844;2022-12-31T09:29:43;98627.56;;;16.38;100.00
53546;BME280;39432;51.902;10.844;2022-12-31T09:32:22;98621.75;;;16.48;100.00
53546;BME280;39432;51.902;10.844;2022-12-31T09:34:56;98634.56;;;16.44;100.00
53546;BME280;39432;51.902;10.844;2022-12-31T09:37:37;98639.28;;;16.52;100.00
53546;BME280;39432;51.902;10.844;2022-12-31T09:40:32;98639.97;;;16.67;100.00
53546;BME280;39432;51.902;10.844;2022-12-31T09:43:17;98632.97;;;16.60;100.00
53546;BME280;39432;51.902;10.844;2022-12-31T09:49:05;98664.72;;;16.72;100.00
53546;BME280;39432;51.902;10.844;2022-12-31T09:51:43;98657.56;;;16.71;100.00
53546;BME280;39432;51.902;10.844;2022-12-31T09:54:29;98659.84;;;16.86;100.00
53546;BME280;39432;51.902;10.844;2022-12-31T09:57:13;98672.56;;;16.87;100.00
53546;BME280;39432;51.902;10.844;2022-12-31T09:59:51;98667.47;;;16.72;100.00
53546;BME280;39432;51.902;10.844;2022-12-31T10:02:51;98667.97;;;16.91;100.00
53546;BME280;39432;51.902;10.844;2022-12-31T10:05:44;98678.19;;;16.73;100.00
53546;BME280;39432;51.902;10.844;2022-12-31T10:08:31;98644.78;;;16.92;100.00
53546;BME280;39432;51.902;10.844;2022-12-31T10:11:10;98665.56;;;16.90;100.00
53546;BME280;39432;51.902;10.844;2022-12-31T10:13:52;98657.09;;;16.86;100.00
53546;BME280;39432;51.902;10.844;2022-12-31T10:22:42;98668.47;;;16.84;100.00
53546;BME280;39432;51.902;10.844;2022-12-31T10:25:28;98664.41;;;16.82;100.00
53546;BME280;39432;51.902;10.844;2022-12-31T10:28:14;98659.34;;;16.75;100.00
53546;BME280;39432;51.902;10.844;2022-12-31T10:30:53;98675.94;;;16.84;100.00
53546;BME280;39432;51.902;10.844;2022-12-31T10:33:38;98662.63;;;16.86;100.00
53546;BME280;39432;51.902;10.844;2022-12-31T10:36:17;98659.84;;;16.86;100.00
53546;BME280;39432;51.902;10.844;2022-12-31T10:38:58;98668.97;;;16.95;100.00
53546;BME280;39432;51.902;10.844;2022-12-31T10:42:09;98662.47;;;17.08;100.00
53546;BME280;39432;51.902;10.844;2022-12-31T10:51:02;98654.69;;;17.28;100.00
53546;BME280;39432;51.902;10.844;2022-12-31T10:56:52;98666.06;;;17.09;100.00
53546;BME280;39432;51.902;10.844;2022-12-31T11:00:01;98667.53;;;17.32;100.00
53546;BME280;39432;51.902;10.844;2022-12-31T11:05:56;98644.28;;;17.42;100.00
53546;BME280;39432;51.902;10.844;2022-12-31T11:08:47;98655.50;;;17.46;100.00
53546;BME280;39432;51.902;10.844;2022-12-31T11:11:29;98660.38;;;17.49;100.00
53546;BME280;39432;51.902;10.844;2022-12-31T11:14:26;98669.31;;;17.46;100.00
53546;BME280;39432;51.902;10.844;2022-12-31T11:17:11;98634.34;;;17.41;100.00
53546;BME280;39432;51.902;10.844;2022-12-31T11:19:54;98685.25;;;17.40;100.00
53546;BME280;39432;51.902;10.844;2022-12-31T11:22:46;98677.63;;;17.28;100.00
53546;BME280;39432;51.902;10.844;2022-12-31T11:25:29;98689.81;;;17.19;100.00
53546;BME280;39432;51.902;10.844;2022-12-31T11:28:11;98690.47;;;17.16;100.00
53546;BME280;39432;51.902;10.844;2022-12-31T11:31:05;98691.47;;;17.20;100.00
53546;BME280;39432;51.902;10.844;2022-12-31T11:33:50;98685.56;;;17.12;100.00
53546;BME280;39432;51.902;10.844;2022-12-31T11:36:37;98685.91;;;17.11;100.00
53546;BME280;39432;51.902;10.844;2022-12-31T11:39:28;98674.22;;;17.23;100.00
53546;BME280;39432;51.902;10.844;2022-12-31T11:42:06;98658.09;;;17.25;100.00
53546;BME280;39432;51.902;10.844;2022-12-31T11:44:46;98692.09;;;17.25;100.00
53546;BME280;39432;51.902;10.844;2022-12-31T11:47:38;98698.09;;;17.36;100.00
53546;BME280;39432;51.902;10.844;2022-12-31T11:50:37;98701.53;;;17.33;100.00
53546;BME280;39432;51.902;10.844;2022-12-31T11:53:22;98691.47;;;17.37;100.00
53546;BME280;39432;51.902;10.844;2022-12-31T11:55:59;98700.22;;;17.39;100.00
53546;BME280;39432;51.902;10.844;2022-12-31T11:58:33;98687.88;;;17.36;100.00
53546;BME280;39432;51.902;10.844;2022-12-31T12:01:04;98667.69;;;17.36;100.00
53546;BME280;39432;51.902;10.844;2022-12-31T12:03:40;98677.47;;;17.33;100.00
53546;BME280;39432;51.902;10.844;2022-12-31T12:06:12;98687.22;;;17.31;100.00
53546;BME280;39432;51.902;10.844;2022-12-31T12:08:43;98696.63;;;17.30;100.00
53546;BME280;39432;51.902;10.844;2022-12-31T12:11:17;98717.44;;;17.19;100.00
53546;BME280;39432;51.902;10.844;2022-12-31T12:13:48;98704.47;;;17.28;100.00
53546;BME280;39432;51.902;10.844;2022-12-31T12:16:20;98707.38;;;17.23;100.00
53546;BME280;39432;51.902;10.844;2022-12-31T12:19:02;98709.66;;;17.21;100.00
53546;BME280;39432;51.902;10.844;2022-12-31T12:21:33;98715.34;;;17.16;100.00
53546;BME280;39432;51.902;10.844;2022-12-31T12:24:05;98718.25;;;17.10;100.00
53546;BME280;39432;51.902;10.844;2022-12-31T12:26:42;98716.94;;;17.08;100.00
53546;BME280;39432;51.902;10.844;2022-12-31T12:29:17;98706.38;;;17.01;100.00
53546;BME280;39432;51.902;10.844;2022-12-31T12:31:57;98724.94;;;17.09;100.00
53546;BME280;39432;51.902;10.844;2022-12-31T12:34:31;98722.16;;;17.18;100.00
53546;BME280;39432;51.902;10.844;2022-12-31T12:37:01;98722.16;;;17.18;100.00
53546;BME280;39432;51.902;10.844;2022-12-31T12:39:33;98723.47;;;17.12;100.00
53546;BME280;39432;51.902;10.844;2022-12-31T12:42:04;98713.38;;;17.07;100.00
53546;BME280;39432;51.902;10.844;2022-12-31T12:44:35;98715.66;;;17.14;100.00
53546;BME280;39432;51.902;10.844;2022-12-31T12:47:07;98711.13;;;17.09;100.00
53546;BME280;39432;51.902;10.844;2022-12-31T12:49:45;98711.28;;;17.22;100.00
53546;BME280;39432;51.902;10.844;2022-12-31T12:52:28;98712.13;;;17.31;100.00
53546;BME280;39432;51.902;10.844;2022-12-31T12:55:10;98724.44;;;17.25;100.00
53546;BME280;39432;51.902;10.844;2022-12-31T12:57:49;98729.97;;;17.16;100.00
53546;BME280;39432;51.902;10.844;2022-12-31T13:00:30;98738.94;;;17.22;100.00
53546;BME280;39432;51.902;10.844;2022-12-31T13:03:29;98734.41;;;17.26;100.00
53546;BME280;39432;51.902;10.844;2022-12-31T13:06:35;98744.00;;;17.37;100.00
53546;BME280;39432;51.902;10.844;2022-12-31T13:09:21;98729.03;;;17.38;100.00
53546;BME280;39432;51.902;10.844;2022-12-31T13:12:01;98741.53;;;17.27;100.00
53546;BME280;39432;51.902;10.844;2022-12-31T13:14:39;98741.53;;;17.27;100.00
53546;BME280;39432;51.902;10.844;2022-12-31T13:17:31;98753.91;;;17.38;100.00
53546;BME280;39432;51.902;10.844;2022-12-31T13:20:10;98745.13;;;17.36;100.00
53546;BME280;39432;51.902;10.844;2022-12-31T13:22:47;98735.06;;;17.31;100.00
53546;BME280;39432;51.902;10.844;2022-12-31T13:25:25;98742.19;;;17.41;100.00
53546;BME280;39432;51.902;10.844;2022-12-31T13:27:57;98740.56;;;17.40;100.00
53546;BME280;39432;51.902;10.844;2022-12-31T13:30:31;98738.63;;;17.32;100.00
53546;BME280;39432;51.902;10.844;2022-12-31T13:33:04;98725.44;;;17.37;100.00
53546;BME280;39432;51.902;10.844;2022-12-31T13:35:39;98728.84;;;17.34;100.00
53546;BME280;39432;51.902;10.844;2022-12-31T13:38:17;98742.19;;;17.41;100.00
53546;BME280;39432;51.902;10.844;2022-12-31T13:40:52;98761.06;;;17.39;100.00
53546;BME280;39432;51.902;10.844;2022-12-31T13:43:33;98733.88;;;17.24;100.00
53546;BME280;39432;51.902;10.844;2022-12-31T13:46:11;98740.22;;;17.16;100.00
53546;BME280;39432;51.902;10.844;2022-12-31T13:48:47;98740.72;;;17.18;100.00
53546;BME280;39432;51.902;10.844;2022-12-31T13:51:24;98739.59;;;17.36;100.00
53546;BME280;39432;51.902;10.844;2022-12-31T13:54:00;98746.09;;;17.23;100.00